메인 페이지
METAR-TAF:

METAR-TAF

공항 :

Rutland Southern Vermont Regional Airport

Rutland, 버몬트, 미국

위도: 43-32N, 경도: 072-57W, 고도: 240m

현재 날씨관측

예보는 1 시간 1분 전, 02:56시(UTC)에 발표되었습니다.
남남동5kt
온도 3°C
습도 93%
기압 1007 hPa
시정: 16.1km
고도 1200ft 상공 구름 조금
고도 2300ft 상공 구름 많음
고도 4800ft 상공 흐림
약한비

METAR: KRUT 160256Z AUTO 16005KT 10SM -RA FEW012 BKN023 OVC048 03/02 A2974 RMK AO2 SLP070 P0000 60005 T00280017 58002 $

시각: 23:57 (03:57 UTC)

예보

예보는 4 시간 35분 전, 23:22시(UTC)에 발표되었습니다.
예보 대상 시간: 16일 00시부터 16일 24시까지 (UTC)
동남동15kt, 순간 최대 풍속 25kt
시정: 10km
고도 3500ft 상공 흐림
약한비
16일 0300시부터 (UTC)
동남동10kt
시정: 10km
고도 3000ft 상공 흐림
약한비, 눈
16일 0800시부터 (UTC)
8kt
시정: 6.4km
고도 6000ft 상공 흐림
약한비, 눈, 박무
16일 1300시부터 (UTC)
동북동5kt
시정: 10km
고도 1800ft 상공 흐림
약한비, 눈
16일 1800시부터 (UTC)
6kt
시정: 9.7km
고도 900ft 상공 흐림
약한비, 박무

TAF: KRUT 152322Z 1600/1624 12015G25KT P6SM -RA OVC035 FM160300 12010KT P6SM -RASN OVC030 FM160800 10008KT 4SM -RASN BR OVC060 FM161300 06005KT P6SM -RASN OVC018 FM161800 36006KT 6SM -RA BR OVC009

4,000개 이상의 공항 관측 자료 및 예보 (METAR 및 TAF 보고).

지도상에서 검색 가능한 기상관측소가 노란 점과 빨간 점으로 표시되어 있습니다.

기상관측소 명을 보려면 표시 위로 마우스를 이동하세요.

날씨 관측과 예보를 보려면 클릭하세요.

지도 변경 : 확대하려면 엑스 표시가 있는 녹색 버튼, 축소하려면 빼기 표시가 있는 녹색 버튼, 다음 페이지의 지도를 보려면 녹색 화살표를 클릭하세요.


METAR-TAF: